PWSweather.com
Personal Weather Stations
Station Observations
KM01CL
Kitemaniak 01, Castiglione Del LagoIT 06061

Kitemaniak 01Castiglione Del LagoIT 06061

Lat: 43.133808, Lon: 12.045753

Elevation: 997

Station Type: Ventus W831

High Low Average
Temperature 49.8°F9.9°C 37.9°F3.3°C 44.8°F7.1°C
Dew Point 40.4°F4.7°C 20.7°F-6.3°C 28.2°F-2.1°C
Winds 30.4 mph 48.9 kmh 1.6 mph 2.6 kmh 15.0 mph NE24.1 kmh NE
Wind Gusts 33.6 mph54.1 kmh 3.1 mph5.0 kmh 17.0 mph27.4 kmh
Humidity 70% 35% 53%
Pressure 30.32 in1026.8 mb 30.15 in1021.0 mb -
Precipitation 0.00 in0.0 mm - -
Hour Temp Dew Point Humidity Winds Wind Gusts Pressure Precip Precip Rate Daily Precip Total
11:31 AM 48.6°F9.2°C 38.5°F3.6°C 68% 9.2 mph 14.8 kmh 10.7 mph17.2 kmh 30.16 in1021.3 mb 0.00 in0.0 mm 0.00 in0.0 mm 0.00 in0.0 mm
11:33 AM 48.4°F9.1°C 38.3°F3.5°C 68% 10.7 mph 17.2 kmh 12.1 mph19.5 kmh 30.16 in1021.3 mb 0.00 in0.0 mm 0.00 in0.0 mm 0.00 in0.0 mm
11:37 AM 48.2°F9.0°C 38.5°F3.6°C 69% 7.6 mph 12.2 kmh 8.3 mph13.4 kmh 30.15 in1021.0 mb 0.00 in0.0 mm 0.00 in0.0 mm 0.00 in0.0 mm
11:39 AM 48.4°F9.1°C 39.1°F3.9°C 70% 4.5 mph 7.2 kmh 5.4 mph8.7 kmh 30.16 in1021.3 mb 0.00 in0.0 mm 0.00 in0.0 mm 0.00 in0.0 mm
11:41 AM 48.7°F9.3°C 39.4°F4.1°C 70% 2.2 mph NE3.5 kmh NE 3.1 mph5.0 kmh 30.16 in1021.3 mb 0.00 in0.0 mm 0.00 in0.0 mm 0.00 in0.0 mm
11:43 AM 49.1°F9.5°C 39.7°F4.3°C 70% 5.4 mph NE8.7 kmh NE 6.0 mph9.7 kmh 30.16 in1021.3 mb 0.00 in0.0 mm 0.00 in0.0 mm 0.00 in0.0 mm
11:45 AM 49.5°F9.7°C 40.1°F4.5°C 70% 4.5 mph NE7.2 kmh NE 6.0 mph9.7 kmh 30.15 in1021.0 mb 0.00 in0.0 mm 0.00 in0.0 mm 0.00 in0.0 mm
11:47 AM 49.8°F9.9°C 40.4°F4.7°C 70% 4.5 mph NE7.2 kmh NE 5.4 mph8.7 kmh 30.16 in1021.3 mb 0.00 in0.0 mm 0.00 in0.0 mm 0.00 in0.0 mm
11:49 AM 49.8°F9.9°C 40.4°F4.7°C 70% 4.5 mph NE7.2 kmh NE 5.4 mph8.7 kmh 30.16 in1021.3 mb 0.00 in0.0 mm 0.00 in0.0 mm 0.00 in0.0 mm
11:51 AM 49.8°F9.9°C 39.7°F4.3°C 68% 3.8 mph NE6.1 kmh NE 4.5 mph7.2 kmh 30.16 in1021.3 mb 0.00 in0.0 mm 0.00 in0.0 mm 0.00 in0.0 mm
11:53 AM 49.6°F9.8°C 39.1°F3.9°C 67% 3.8 mph NE6.1 kmh NE 5.4 mph8.7 kmh 30.16 in1021.3 mb 0.00 in0.0 mm 0.00 in0.0 mm 0.00 in0.0 mm
11:55 AM 49.5°F9.7°C 38.6°F3.7°C 66% 5.4 mph NE8.7 kmh NE 6.0 mph9.7 kmh 30.16 in1021.3 mb 0.00 in0.0 mm 0.00 in0.0 mm 0.00 in0.0 mm
11:57 AM 49.3°F9.6°C 38.4°F3.6°C 66% 6.0 mph NE9.7 kmh NE 7.6 mph12.2 kmh 30.16 in1021.3 mb 0.00 in0.0 mm 0.00 in0.0 mm 0.00 in0.0 mm
11:59 AM 49.1°F9.5°C 37.9°F3.3°C 65% 8.3 mph NE13.4 kmh NE 9.2 mph14.8 kmh 30.16 in1021.3 mb 0.00 in0.0 mm 0.00 in0.0 mm 0.00 in0.0 mm
12:01 PM 49.1°F9.5°C 37.9°F3.3°C 65% 8.3 mph NE13.4 kmh NE 9.2 mph14.8 kmh 30.16 in1021.3 mb 0.00 in0.0 mm 0.00 in0.0 mm 0.00 in0.0 mm
12:03 PM 49.1°F9.5°C 37.9°F3.3°C 65% 8.3 mph NE13.4 kmh NE 9.2 mph14.8 kmh 30.16 in1021.3 mb 0.00 in0.0 mm 0.00 in0.0 mm 0.00 in0.0 mm
12:05 PM 49.1°F9.5°C 37.9°F3.3°C 65% 8.3 mph NE13.4 kmh NE 9.2 mph14.8 kmh 30.17 in1021.7 mb 0.00 in0.0 mm 0.00 in0.0 mm 0.00 in0.0 mm
12:07 PM 47.8°F8.8°C 35.1°F1.7°C 61% 30.4 mph NE48.9 kmh NE 32.7 mph52.6 kmh 30.16 in1021.3 mb 0.00 in0.0 mm 0.00 in0.0 mm 0.00 in0.0 mm
12:09 PM 46.9°F8.3°C 33.8°F1.0°C 60% 26.0 mph NE41.8 kmh NE 28.9 mph46.5 kmh 30.17 in1021.7 mb 0.00 in0.0 mm 0.00 in0.0 mm 0.00 in0.0 mm
12:11 PM 46.4°F8.0°C 33.7°F0.9°C 61% 20.6 mph NE33.2 kmh NE 22.2 mph35.7 kmh 30.17 in1021.7 mb 0.00 in0.0 mm 0.00 in0.0 mm 0.00 in0.0 mm
12:13 PM 46.4°F8.0°C 33.7°F0.9°C 61% 29.8 mph NE48.0 kmh NE 31.1 mph50.1 kmh 30.17 in1021.7 mb 0.00 in0.0 mm 0.00 in0.0 mm 0.00 in0.0 mm
12:15 PM 45.9°F7.7°C 33.2°F0.7°C 61% 24.4 mph 39.3 kmh 28.9 mph46.5 kmh 30.17 in1021.7 mb 0.00 in0.0 mm 0.00 in0.0 mm 0.00 in0.0 mm
12:17 PM 45.5°F7.5°C 32.8°F0.4°C 61% 26.0 mph NNE41.8 kmh NNE 28.9 mph46.5 kmh 30.17 in1021.7 mb 0.00 in0.0 mm 0.00 in0.0 mm 0.00 in0.0 mm
12:19 PM 45.3°F7.4°C 34.3°F1.3°C 65% 27.3 mph NE43.9 kmh NE 29.8 mph48.0 kmh 30.17 in1021.7 mb 0.00 in0.0 mm 0.00 in0.0 mm 0.00 in0.0 mm
12:21 PM 45.1°F7.3°C 34.1°F1.2°C 65% 29.8 mph NE48.0 kmh NE 33.6 mph54.1 kmh 30.18 in1022.0 mb 0.00 in0.0 mm 0.00 in0.0 mm 0.00 in0.0 mm
12:23 PM 44.8°F7.1°C 33.7°F0.9°C 65% 29.8 mph NNE48.0 kmh NNE 32.0 mph51.5 kmh 30.18 in1022.0 mb 0.00 in0.0 mm 0.00 in0.0 mm 0.00 in0.0 mm
12:25 PM 44.6°F7.0°C 33.6°F0.9°C 65% 28.2 mph NNE45.4 kmh NNE 30.4 mph48.9 kmh 30.18 in1022.0 mb 0.00 in0.0 mm 0.00 in0.0 mm 0.00 in0.0 mm
12:27 PM 44.4°F6.9°C 33.8°F1.0°C 66% 24.4 mph 39.3 kmh 28.9 mph46.5 kmh 30.18 in1022.0 mb 0.00 in0.0 mm 0.00 in0.0 mm 0.00 in0.0 mm
12:29 PM 44.2°F6.8°C 33.6°F0.9°C 66% 25.1 mph 40.4 kmh 27.3 mph43.9 kmh 30.18 in1022.0 mb 0.00 in0.0 mm 0.00 in0.0 mm 0.00 in0.0 mm
12:31 PM 44.2°F6.8°C 34.0°F1.1°C 67% 25.1 mph 40.4 kmh 28.2 mph45.4 kmh 30.19 in1022.4 mb 0.00 in0.0 mm 0.00 in0.0 mm 0.00 in0.0 mm
12:33 PM 44.2°F6.8°C 33.6°F0.9°C 66% 22.8 mph NE36.7 kmh NE 27.3 mph43.9 kmh 30.19 in1022.4 mb 0.00 in0.0 mm 0.00 in0.0 mm 0.00 in0.0 mm
12:35 PM 44.2°F6.8°C 33.6°F0.9°C 66% 24.4 mph NE39.3 kmh NE 26.0 mph41.8 kmh 30.18 in1022.0 mb 0.00 in0.0 mm 0.00 in0.0 mm 0.00 in0.0 mm
12:37 PM 44.2°F6.8°C 33.6°F0.9°C 66% 21.3 mph NE34.3 kmh NE 24.4 mph39.3 kmh 30.18 in1022.0 mb 0.00 in0.0 mm 0.00 in0.0 mm 0.00 in0.0 mm
12:39 PM 44.4°F6.9°C 34.2°F1.2°C 67% 18.3 mph NE29.5 kmh NE 19.0 mph30.6 kmh 30.19 in1022.4 mb 0.00 in0.0 mm 0.00 in0.0 mm 0.00 in0.0 mm
12:41 PM 44.6°F7.0°C 34.3°F1.3°C 67% 25.1 mph NNE40.4 kmh NNE 30.4 mph48.9 kmh 30.18 in1022.0 mb 0.00 in0.0 mm 0.00 in0.0 mm 0.00 in0.0 mm
12:43 PM 45.0°F7.2°C 34.3°F1.3°C 66% 19.7 mph NE31.7 kmh NE 21.3 mph34.3 kmh 30.19 in1022.4 mb 0.00 in0.0 mm 0.00 in0.0 mm 0.00 in0.0 mm
12:45 PM 45.0°F7.2°C 34.3°F1.3°C 66% 19.0 mph NE30.6 kmh NE 20.6 mph33.2 kmh 30.19 in1022.4 mb 0.00 in0.0 mm 0.00 in0.0 mm 0.00 in0.0 mm
12:47 PM 45.3°F7.4°C 34.6°F1.4°C 66% 19.0 mph NE30.6 kmh NE 20.6 mph33.2 kmh 30.20 in1022.7 mb 0.00 in0.0 mm 0.00 in0.0 mm 0.00 in0.0 mm
12:49 PM 45.5°F7.5°C 33.3°F0.7°C 62% 19.0 mph NE30.6 kmh NE 19.7 mph31.7 kmh 30.20 in1022.7 mb 0.00 in0.0 mm 0.00 in0.0 mm 0.00 in0.0 mm
12:51 PM 45.9°F7.7°C 33.6°F0.9°C 62% 16.8 mph NE27.0 kmh NE 18.3 mph29.5 kmh 30.20 in1022.7 mb 0.00 in0.0 mm 0.00 in0.0 mm 0.00 in0.0 mm
12:53 PM 46.2°F7.9°C 34.3°F1.3°C 63% 14.5 mph E23.3 kmh E 15.2 mph24.5 kmh 30.20 in1022.7 mb 0.00 in0.0 mm 0.00 in0.0 mm 0.00 in0.0 mm
12:55 PM 46.6°F8.1°C 34.7°F1.5°C 63% 14.5 mph NE23.3 kmh NE 16.8 mph27.0 kmh 30.20 in1022.7 mb 0.00 in0.0 mm 0.00 in0.0 mm 0.00 in0.0 mm
12:57 PM 46.8°F8.2°C 34.4°F1.3°C 62% 9.8 mph E15.8 kmh E 11.4 mph18.3 kmh 30.20 in1022.7 mb 0.00 in0.0 mm 0.00 in0.0 mm 0.00 in0.0 mm
01:00 PM 47.3°F8.5°C 35.0°F1.7°C 62% 15.9 mph NE25.6 kmh NE 18.3 mph29.5 kmh 30.20 in1022.7 mb 0.00 in0.0 mm 0.00 in0.0 mm 0.00 in0.0 mm
01:02 PM 47.3°F8.5°C 34.5°F1.4°C 61% 15.2 mph E24.5 kmh E 16.8 mph27.0 kmh 30.20 in1022.7 mb 0.00 in0.0 mm 0.00 in0.0 mm 0.00 in0.0 mm
01:04 PM 47.5°F8.6°C 34.7°F1.5°C 61% 9.8 mph E15.8 kmh E 11.4 mph18.3 kmh 30.20 in1022.7 mb 0.00 in0.0 mm 0.00 in0.0 mm 0.00 in0.0 mm
01:08 PM 47.3°F8.5°C 34.5°F1.4°C 61% 19.7 mph E31.7 kmh E 24.4 mph39.3 kmh 30.19 in1022.4 mb 0.00 in0.0 mm 0.00 in0.0 mm 0.00 in0.0 mm
01:10 PM 47.1°F8.4°C 34.4°F1.3°C 61% 10.7 mph ENE17.2 kmh ENE 13.7 mph22.0 kmh 30.18 in1022.0 mb 0.00 in0.0 mm 0.00 in0.0 mm 0.00 in0.0 mm
01:12 PM 46.9°F8.3°C 34.2°F1.2°C 61% 12.1 mph E19.5 kmh E 14.5 mph23.3 kmh 30.18 in1022.0 mb 0.00 in0.0 mm 0.00 in0.0 mm 0.00 in0.0 mm
01:14 PM 46.8°F8.2°C 34.0°F1.1°C 61% 14.5 mph E23.3 kmh E 17.5 mph28.2 kmh 30.19 in1022.4 mb 0.00 in0.0 mm 0.00 in0.0 mm 0.00 in0.0 mm
01:16 PM 46.6°F8.1°C 34.3°F1.3°C 62% 13.7 mph ENE22.0 kmh ENE 15.9 mph25.6 kmh 30.19 in1022.4 mb 0.00 in0.0 mm 0.00 in0.0 mm 0.00 in0.0 mm
01:18 PM 46.4°F8.0°C 34.5°F1.4°C 63% 13.7 mph E22.0 kmh E 15.2 mph24.5 kmh 30.18 in1022.0 mb 0.00 in0.0 mm 0.00 in0.0 mm 0.00 in0.0 mm
01:20 PM 46.0°F7.8°C 34.2°F1.2°C 63% 10.7 mph E17.2 kmh E 13.0 mph20.9 kmh 30.18 in1022.0 mb 0.00 in0.0 mm 0.00 in0.0 mm 0.00 in0.0 mm
01:22 PM 45.7°F7.6°C 33.8°F1.0°C 63% 17.5 mph NE28.2 kmh NE 19.0 mph30.6 kmh 30.18 in1022.0 mb 0.00 in0.0 mm 0.00 in0.0 mm 0.00 in0.0 mm
01:24 PM 45.3°F7.4°C 35.0°F1.7°C 67% 19.0 mph E30.6 kmh E 22.2 mph35.7 kmh 30.17 in1021.7 mb 0.00 in0.0 mm 0.00 in0.0 mm 0.00 in0.0 mm
01:26 PM 45.1°F7.3°C 35.2°F1.8°C 68% 8.3 mph E13.4 kmh E 9.2 mph14.8 kmh 30.18 in1022.0 mb 0.00 in0.0 mm 0.00 in0.0 mm 0.00 in0.0 mm
01:28 PM 45.0°F7.2°C 35.1°F1.7°C 68% 10.7 mph E17.2 kmh E 14.5 mph23.3 kmh 30.18 in1022.0 mb 0.00 in0.0 mm 0.00 in0.0 mm 0.00 in0.0 mm
01:30 PM 44.8°F7.1°C 35.6°F2.0°C 70% 15.9 mph NE25.6 kmh NE 17.5 mph28.2 kmh 30.18 in1022.0 mb 0.00 in0.0 mm 0.00 in0.0 mm 0.00 in0.0 mm
01:32 PM 44.8°F7.1°C 35.6°F2.0°C 70% 9.8 mph E15.8 kmh E 13.7 mph22.0 kmh 30.18 in1022.0 mb 0.00 in0.0 mm 0.00 in0.0 mm 0.00 in0.0 mm
01:34 PM 44.8°F7.1°C 35.6°F2.0°C 70% 14.5 mph E23.3 kmh E 16.8 mph27.0 kmh 30.18 in1022.0 mb 0.00 in0.0 mm 0.00 in0.0 mm 0.00 in0.0 mm
01:36 PM 44.8°F7.1°C 35.6°F2.0°C 70% 8.3 mph E13.4 kmh E 9.8 mph15.8 kmh 30.18 in1022.0 mb 0.00 in0.0 mm 0.00 in0.0 mm 0.00 in0.0 mm
01:38 PM 44.8°F7.1°C 35.6°F2.0°C 70% 10.7 mph E17.2 kmh E 12.1 mph19.5 kmh 30.18 in1022.0 mb 0.00 in0.0 mm 0.00 in0.0 mm 0.00 in0.0 mm
01:40 PM 45.0°F7.2°C 35.8°F2.1°C 70% 6.0 mph NE9.7 kmh NE 7.6 mph12.2 kmh 30.19 in1022.4 mb 0.00 in0.0 mm 0.00 in0.0 mm 0.00 in0.0 mm
01:42 PM 45.0°F7.2°C 35.8°F2.1°C 70% 6.0 mph ENE9.7 kmh ENE 7.6 mph12.2 kmh 30.18 in1022.0 mb 0.00 in0.0 mm 0.00 in0.0 mm 0.00 in0.0 mm
01:44 PM 45.0°F7.2°C 35.8°F2.1°C 70% 3.8 mph SE6.1 kmh SE 4.5 mph7.2 kmh 30.19 in1022.4 mb 0.00 in0.0 mm 0.00 in0.0 mm 0.00 in0.0 mm
01:46 PM 45.0°F7.2°C 35.8°F2.1°C 70% 3.8 mph SW6.1 kmh SW 4.5 mph7.2 kmh 30.19 in1022.4 mb 0.00 in0.0 mm 0.00 in0.0 mm 0.00 in0.0 mm
01:48 PM 45.0°F7.2°C 35.4°F1.9°C 69% 3.1 mph S5.0 kmh S 3.8 mph6.1 kmh 30.19 in1022.4 mb 0.00 in0.0 mm 0.00 in0.0 mm 0.00 in0.0 mm
01:50 PM 44.8°F7.1°C 35.2°F1.8°C 69% 5.4 mph S8.7 kmh S 7.6 mph12.2 kmh 30.20 in1022.7 mb 0.00 in0.0 mm 0.00 in0.0 mm 0.00 in0.0 mm
01:52 PM 44.8°F7.1°C 35.2°F1.8°C 69% 3.1 mph S5.0 kmh S 3.8 mph6.1 kmh 30.19 in1022.4 mb 0.00 in0.0 mm 0.00 in0.0 mm 0.00 in0.0 mm
01:54 PM 45.0°F7.2°C 35.8°F2.1°C 70% 3.8 mph S6.1 kmh S 4.5 mph7.2 kmh 30.20 in1022.7 mb 0.00 in0.0 mm 0.00 in0.0 mm 0.00 in0.0 mm
01:56 PM 45.1°F7.3°C 36.0°F2.2°C 70% 5.4 mph S8.7 kmh S 6.0 mph9.7 kmh 30.20 in1022.7 mb 0.00 in0.0 mm 0.00 in0.0 mm 0.00 in0.0 mm
01:58 PM 45.3°F7.4°C 36.1°F2.3°C 70% 3.1 mph S5.0 kmh S 4.5 mph7.2 kmh 30.20 in1022.7 mb 0.00 in0.0 mm 0.00 in0.0 mm 0.00 in0.0 mm
02:00 PM 45.5°F7.5°C 34.4°F1.3°C 65% 4.5 mph S7.2 kmh S 6.0 mph9.7 kmh 30.19 in1022.4 mb 0.00 in0.0 mm 0.00 in0.0 mm 0.00 in0.0 mm
02:02 PM 45.5°F7.5°C 34.4°F1.3°C 65% 4.5 mph S7.2 kmh S 6.0 mph9.7 kmh 30.19 in1022.4 mb 0.00 in0.0 mm 0.00 in0.0 mm 0.00 in0.0 mm
02:04 PM 45.5°F7.5°C 34.4°F1.3°C 65% 4.5 mph S7.2 kmh S 6.0 mph9.7 kmh 30.19 in1022.4 mb 0.00 in0.0 mm 0.00 in0.0 mm 0.00 in0.0 mm
02:06 PM 47.1°F8.4°C 36.0°F2.2°C 65% 4.5 mph S7.2 kmh S 5.4 mph8.7 kmh 30.18 in1022.0 mb 0.00 in0.0 mm 0.00 in0.0 mm 0.00 in0.0 mm
02:08 PM 47.5°F8.6°C 35.9°F2.2°C 64% 4.5 mph S7.2 kmh S 6.0 mph9.7 kmh 30.19 in1022.4 mb 0.00 in0.0 mm 0.00 in0.0 mm 0.00 in0.0 mm
02:10 PM 47.8°F8.8°C 35.9°F2.2°C 63% 5.4 mph S8.7 kmh S 6.9 mph11.1 kmh 30.19 in1022.4 mb 0.00 in0.0 mm 0.00 in0.0 mm 0.00 in0.0 mm
02:12 PM 47.8°F8.8°C 35.5°F1.9°C 62% 3.8 mph S6.1 kmh S 4.5 mph7.2 kmh 30.19 in1022.4 mb 0.00 in0.0 mm 0.00 in0.0 mm 0.00 in0.0 mm
02:14 PM 48.0°F8.9°C 35.6°F2.0°C 62% 3.1 mph SW5.0 kmh SW 4.5 mph7.2 kmh 30.19 in1022.4 mb 0.00 in0.0 mm 0.00 in0.0 mm 0.00 in0.0 mm
02:16 PM 48.0°F8.9°C 35.6°F2.0°C 62% 3.8 mph SE6.1 kmh SE 4.5 mph7.2 kmh 30.19 in1022.4 mb 0.00 in0.0 mm 0.00 in0.0 mm 0.00 in0.0 mm
02:18 PM 48.0°F8.9°C 35.2°F1.8°C 61% 5.4 mph SE8.7 kmh SE 6.9 mph11.1 kmh 30.18 in1022.0 mb 0.00 in0.0 mm 0.00 in0.0 mm 0.00 in0.0 mm
02:20 PM 47.8°F8.8°C 34.6°F1.4°C 60% 3.8 mph S6.1 kmh S 4.5 mph7.2 kmh 30.18 in1022.0 mb 0.00 in0.0 mm 0.00 in0.0 mm 0.00 in0.0 mm
02:22 PM 47.7°F8.7°C 34.5°F1.4°C 60% 7.6 mph S12.2 kmh S 9.2 mph14.8 kmh 30.18 in1022.0 mb 0.00 in0.0 mm 0.00 in0.0 mm 0.00 in0.0 mm
02:26 PM 47.5°F8.6°C 33.9°F1.1°C 59% 4.5 mph SSE7.2 kmh SSE 5.4 mph8.7 kmh 30.19 in1022.4 mb 0.00 in0.0 mm 0.00 in0.0 mm 0.00 in0.0 mm
02:28 PM 47.5°F8.6°C 33.9°F1.1°C 59% 3.8 mph S6.1 kmh S 4.5 mph7.2 kmh 30.18 in1022.0 mb 0.00 in0.0 mm 0.00 in0.0 mm 0.00 in0.0 mm
02:30 PM 47.3°F8.5°C 34.1°F1.2°C 60% 4.5 mph S7.2 kmh S 6.0 mph9.7 kmh 30.18 in1022.0 mb 0.00 in0.0 mm 0.00 in0.0 mm 0.00 in0.0 mm
02:32 PM 47.3°F8.5°C 34.1°F1.2°C 60% 5.4 mph S8.7 kmh S 6.0 mph9.7 kmh 30.18 in1022.0 mb 0.00 in0.0 mm 0.00 in0.0 mm 0.00 in0.0 mm
02:34 PM 47.5°F8.6°C 34.3°F1.3°C 60% 3.8 mph ENE6.1 kmh ENE 4.5 mph7.2 kmh 30.18 in1022.0 mb 0.00 in0.0 mm 0.00 in0.0 mm 0.00 in0.0 mm
02:36 PM 47.5°F8.6°C 34.3°F1.3°C 60% 3.8 mph S6.1 kmh S 5.4 mph8.7 kmh 30.18 in1022.0 mb 0.00 in0.0 mm 0.00 in0.0 mm 0.00 in0.0 mm
02:38 PM 47.5°F8.6°C 33.5°F0.8°C 58% 3.1 mph S5.0 kmh S 6.0 mph9.7 kmh 30.19 in1022.4 mb 0.00 in0.0 mm 0.00 in0.0 mm 0.00 in0.0 mm
02:40 PM 47.5°F8.6°C 33.0°F0.6°C 57% 5.4 mph S8.7 kmh S 6.9 mph11.1 kmh 30.18 in1022.0 mb 0.00 in0.0 mm 0.00 in0.0 mm 0.00 in0.0 mm
02:42 PM 47.5°F8.6°C 32.6°F0.3°C 56% 5.4 mph S8.7 kmh S 6.9 mph11.1 kmh 30.19 in1022.4 mb 0.00 in0.0 mm 0.00 in0.0 mm 0.00 in0.0 mm
02:44 PM 47.5°F8.6°C 32.6°F0.3°C 56% 3.1 mph S5.0 kmh S 3.8 mph6.1 kmh 30.19 in1022.4 mb 0.00 in0.0 mm 0.00 in0.0 mm 0.00 in0.0 mm
02:46 PM 47.5°F8.6°C 32.6°F0.3°C 56% 3.8 mph SE6.1 kmh SE 4.5 mph7.2 kmh 30.19 in1022.4 mb 0.00 in0.0 mm 0.00 in0.0 mm 0.00 in0.0 mm
02:48 PM 47.5°F8.6°C 32.6°F0.3°C 56% 3.1 mph SE5.0 kmh SE 3.8 mph6.1 kmh 30.19 in1022.4 mb 0.00 in0.0 mm 0.00 in0.0 mm 0.00 in0.0 mm
02:50 PM 47.3°F8.5°C 32.0°F0.0°C 55% 5.4 mph E8.7 kmh E 6.9 mph11.1 kmh 30.19 in1022.4 mb 0.00 in0.0 mm 0.00 in0.0 mm 0.00 in0.0 mm
02:52 PM 47.3°F8.5°C 32.0°F0.0°C 55% 3.1 mph SE5.0 kmh SE 3.8 mph6.1 kmh 30.19 in1022.4 mb 0.00 in0.0 mm 0.00 in0.0 mm 0.00 in0.0 mm
02:54 PM 46.9°F8.3°C 31.6°F-0.2°C 55% 3.8 mph NE6.1 kmh NE 4.5 mph7.2 kmh 30.19 in1022.4 mb 0.00 in0.0 mm 0.00 in0.0 mm 0.00 in0.0 mm
02:56 PM 46.8°F8.2°C 31.5°F-0.3°C 55% 9.2 mph NE14.8 kmh NE 12.1 mph19.5 kmh 30.19 in1022.4 mb 0.00 in0.0 mm 0.00 in0.0 mm 0.00 in0.0 mm
02:58 PM 46.6°F8.1°C 30.8°F-0.7°C 54% 3.8 mph E6.1 kmh E 4.5 mph7.2 kmh 30.18 in1022.0 mb 0.00 in0.0 mm 0.00 in0.0 mm 0.00 in0.0 mm
03:00 PM 46.2°F7.9°C 30.0°F-1.1°C 53% 8.3 mph 13.4 kmh 11.4 mph18.3 kmh 30.19 in1022.4 mb 0.00 in0.0 mm 0.00 in0.0 mm 0.00 in0.0 mm
03:02 PM 46.0°F7.8°C 28.5°F-1.9°C 50% 13.0 mph 20.9 kmh 14.5 mph23.3 kmh 30.18 in1022.0 mb 0.00 in0.0 mm 0.00 in0.0 mm 0.00 in0.0 mm
03:04 PM 46.2°F7.9°C 27.1°F-2.7°C 47% 17.5 mph 28.2 kmh 19.0 mph30.6 kmh 30.18 in1022.0 mb 0.00 in0.0 mm 0.00 in0.0 mm 0.00 in0.0 mm
03:06 PM 46.4°F8.0°C 25.7°F-3.5°C 44% 20.6 mph NE33.2 kmh NE 22.8 mph36.7 kmh 30.18 in1022.0 mb 0.00 in0.0 mm 0.00 in0.0 mm 0.00 in0.0 mm
03:08 PM 46.4°F8.0°C 26.8°F-2.9°C 46% 15.2 mph NNE24.5 kmh NNE 18.3 mph29.5 kmh 30.18 in1022.0 mb 0.00 in0.0 mm 0.00 in0.0 mm 0.00 in0.0 mm
03:10 PM 46.4°F8.0°C 27.3°F-2.6°C 47% 18.3 mph NE29.5 kmh NE 19.0 mph30.6 kmh 30.18 in1022.0 mb 0.00 in0.0 mm 0.00 in0.0 mm 0.00 in0.0 mm
03:12 PM 46.6°F8.1°C 26.4°F-3.1°C 45% 22.2 mph NE35.7 kmh NE 24.4 mph39.3 kmh 30.18 in1022.0 mb 0.00 in0.0 mm 0.00 in0.0 mm 0.00 in0.0 mm
03:14 PM 46.6°F8.1°C 26.4°F-3.1°C 45% 23.5 mph 37.8 kmh 26.0 mph41.8 kmh 30.18 in1022.0 mb 0.00 in0.0 mm 0.00 in0.0 mm 0.00 in0.0 mm
03:16 PM 46.6°F8.1°C 25.9°F-3.4°C 44% 22.8 mph 36.7 kmh 25.1 mph40.4 kmh 30.18 in1022.0 mb 0.00 in0.0 mm 0.00 in0.0 mm 0.00 in0.0 mm
03:18 PM 46.6°F8.1°C 26.4°F-3.1°C 45% 18.3 mph NE29.5 kmh NE 20.6 mph33.2 kmh 30.18 in1022.0 mb 0.00 in0.0 mm 0.00 in0.0 mm 0.00 in0.0 mm
03:20 PM 46.6°F8.1°C 25.9°F-3.4°C 44% 26.0 mph NE41.8 kmh NE 28.2 mph45.4 kmh 30.19 in1022.4 mb 0.00 in0.0 mm 0.00 in0.0 mm 0.00 in0.0 mm
03:22 PM 46.6°F8.1°C 25.9°F-3.4°C 44% 19.7 mph NE31.7 kmh NE 21.3 mph34.3 kmh 30.19 in1022.4 mb 0.00 in0.0 mm 0.00 in0.0 mm 0.00 in0.0 mm
03:24 PM 46.6°F8.1°C 25.9°F-3.4°C 44% 18.3 mph NE29.5 kmh NE 20.6 mph33.2 kmh 30.18 in1022.0 mb 0.00 in0.0 mm 0.00 in0.0 mm 0.00 in0.0 mm
03:26 PM 46.6°F8.1°C 25.9°F-3.4°C 44% 20.6 mph 33.2 kmh 22.8 mph36.7 kmh 30.19 in1022.4 mb 0.00 in0.0 mm 0.00 in0.0 mm 0.00 in0.0 mm
03:28 PM 46.6°F8.1°C 25.3°F-3.7°C 43% 19.0 mph 30.6 kmh 20.6 mph33.2 kmh 30.18 in1022.0 mb 0.00 in0.0 mm 0.00 in0.0 mm 0.00 in0.0 mm
03:30 PM 46.6°F8.1°C 26.4°F-3.1°C 45% 14.5 mph NNE23.3 kmh NNE 15.9 mph25.6 kmh 30.18 in1022.0 mb 0.00 in0.0 mm 0.00 in0.0 mm 0.00 in0.0 mm
03:32 PM 46.4°F8.0°C 26.2°F-3.2°C 45% 17.5 mph 28.2 kmh 19.7 mph31.7 kmh 30.19 in1022.4 mb 0.00 in0.0 mm 0.00 in0.0 mm 0.00 in0.0 mm
03:34 PM 46.4°F8.0°C 24.6°F-4.1°C 42% 26.0 mph NNE41.8 kmh NNE 27.3 mph43.9 kmh 30.19 in1022.4 mb 0.00 in0.0 mm 0.00 in0.0 mm 0.00 in0.0 mm
03:36 PM 46.4°F8.0°C 24.6°F-4.1°C 42% 26.0 mph NNE41.8 kmh NNE 27.3 mph43.9 kmh 30.19 in1022.4 mb 0.00 in0.0 mm 0.00 in0.0 mm 0.00 in0.0 mm
03:38 PM 46.6°F8.1°C 24.2°F-4.3°C 41% 18.3 mph 29.5 kmh 20.6 mph33.2 kmh 30.19 in1022.4 mb 0.00 in0.0 mm 0.00 in0.0 mm 0.00 in0.0 mm
03:40 PM 46.6°F8.1°C 23.6°F-4.7°C 40% 17.5 mph 28.2 kmh 19.0 mph30.6 kmh 30.19 in1022.4 mb 0.00 in0.0 mm 0.00 in0.0 mm 0.00 in0.0 mm
03:42 PM 46.6°F8.1°C 23.6°F-4.7°C 40% 23.5 mph NE37.8 kmh NE 26.0 mph41.8 kmh 30.18 in1022.0 mb 0.00 in0.0 mm 0.00 in0.0 mm 0.00 in0.0 mm
03:44 PM 46.6°F8.1°C 24.2°F-4.3°C 41% 22.8 mph 36.7 kmh 25.1 mph40.4 kmh 30.20 in1022.7 mb 0.00 in0.0 mm 0.00 in0.0 mm 0.00 in0.0 mm
03:46 PM 46.8°F8.2°C 22.5°F-5.3°C 38% 28.2 mph NE45.4 kmh NE 30.4 mph48.9 kmh 30.19 in1022.4 mb 0.00 in0.0 mm 0.00 in0.0 mm 0.00 in0.0 mm
03:48 PM 46.8°F8.2°C 21.9°F-5.6°C 37% 22.8 mph NNE36.7 kmh NNE 26.6 mph42.8 kmh 30.19 in1022.4 mb 0.00 in0.0 mm 0.00 in0.0 mm 0.00 in0.0 mm
03:50 PM 46.8°F8.2°C 23.1°F-4.9°C 39% 27.3 mph NE43.9 kmh NE 32.7 mph52.6 kmh 30.19 in1022.4 mb 0.00 in0.0 mm 0.00 in0.0 mm 0.00 in0.0 mm
03:52 PM 46.9°F8.3°C 22.7°F-5.2°C 38% 26.6 mph NNE42.8 kmh NNE 28.2 mph45.4 kmh 30.20 in1022.7 mb 0.00 in0.0 mm 0.00 in0.0 mm 0.00 in0.0 mm
03:54 PM 46.9°F8.3°C 20.7°F-6.3°C 35% 21.3 mph NNE34.3 kmh NNE 23.5 mph37.8 kmh 30.19 in1022.4 mb 0.00 in0.0 mm 0.00 in0.0 mm 0.00 in0.0 mm
03:56 PM 47.1°F8.4°C 20.9°F-6.2°C 35% 20.6 mph 33.2 kmh 22.8 mph36.7 kmh 30.20 in1022.7 mb 0.00 in0.0 mm 0.00 in0.0 mm 0.00 in0.0 mm
03:58 PM 47.1°F8.4°C 21.6°F-5.8°C 36% 19.0 mph NNE30.6 kmh NNE 20.6 mph33.2 kmh 30.20 in1022.7 mb 0.00 in0.0 mm 0.00 in0.0 mm 0.00 in0.0 mm
04:00 PM 47.1°F8.4°C 21.6°F-5.8°C 36% 16.8 mph NNE27.0 kmh NNE 21.3 mph34.3 kmh 30.19 in1022.4 mb 0.00 in0.0 mm 0.00 in0.0 mm 0.00 in0.0 mm
04:02 PM 47.1°F8.4°C 21.6°F-5.8°C 36% 16.8 mph NNE27.0 kmh NNE 21.3 mph34.3 kmh 30.20 in1022.7 mb 0.00 in0.0 mm 0.00 in0.0 mm 0.00 in0.0 mm
04:04 PM 47.1°F8.4°C 21.6°F-5.8°C 36% 16.8 mph NNE27.0 kmh NNE 21.3 mph34.3 kmh 30.20 in1022.7 mb 0.00 in0.0 mm 0.00 in0.0 mm 0.00 in0.0 mm
04:06 PM 47.1°F8.4°C 24.1°F-4.4°C 40% 23.5 mph 37.8 kmh 26.0 mph41.8 kmh 30.20 in1022.7 mb 0.00 in0.0 mm 0.00 in0.0 mm 0.00 in0.0 mm
04:08 PM 47.1°F8.4°C 24.1°F-4.4°C 40% 23.5 mph 37.8 kmh 26.0 mph41.8 kmh 30.20 in1022.7 mb 0.00 in0.0 mm 0.00 in0.0 mm 0.00 in0.0 mm
04:10 PM 46.8°F8.2°C 23.1°F-4.9°C 39% 28.9 mph 46.5 kmh 31.1 mph50.1 kmh 30.20 in1022.7 mb 0.00 in0.0 mm 0.00 in0.0 mm 0.00 in0.0 mm
04:12 PM 46.8°F8.2°C 23.7°F-4.6°C 40% 21.3 mph 34.3 kmh 23.5 mph37.8 kmh 30.20 in1022.7 mb 0.00 in0.0 mm 0.00 in0.0 mm 0.00 in0.0 mm
04:14 PM 46.6°F8.1°C 24.2°F-4.3°C 41% 22.8 mph 36.7 kmh 26.0 mph41.8 kmh 30.20 in1022.7 mb 0.00 in0.0 mm 0.00 in0.0 mm 0.00 in0.0 mm
04:16 PM 46.6°F8.1°C 24.2°F-4.3°C 41% 26.6 mph 42.8 kmh 28.9 mph46.5 kmh 30.20 in1022.7 mb 0.00 in0.0 mm 0.00 in0.0 mm 0.00 in0.0 mm
04:18 PM 46.6°F8.1°C 24.2°F-4.3°C 41% 24.4 mph 39.3 kmh 26.6 mph42.8 kmh 30.20 in1022.7 mb 0.00 in0.0 mm 0.00 in0.0 mm 0.00 in0.0 mm
04:20 PM 46.6°F8.1°C 24.2°F-4.3°C 41% 26.6 mph 42.8 kmh 28.9 mph46.5 kmh 30.20 in1022.7 mb 0.00 in0.0 mm 0.00 in0.0 mm 0.00 in0.0 mm
04:22 PM 46.6°F8.1°C 24.2°F-4.3°C 41% 23.5 mph 37.8 kmh 27.3 mph43.9 kmh 30.20 in1022.7 mb 0.00 in0.0 mm 0.00 in0.0 mm 0.00 in0.0 mm
04:24 PM 46.6°F8.1°C 24.2°F-4.3°C 41% 26.0 mph 41.8 kmh 28.9 mph46.5 kmh 30.20 in1022.7 mb 0.00 in0.0 mm 0.00 in0.0 mm 0.00 in0.0 mm
04:26 PM 46.4°F8.0°C 24.6°F-4.1°C 42% 24.4 mph 39.3 kmh 26.6 mph42.8 kmh 30.20 in1022.7 mb 0.00 in0.0 mm 0.00 in0.0 mm 0.00 in0.0 mm
04:28 PM 46.4°F8.0°C 24.6°F-4.1°C 42% 24.4 mph 39.3 kmh 26.6 mph42.8 kmh 30.20 in1022.7 mb 0.00 in0.0 mm 0.00 in0.0 mm 0.00 in0.0 mm
04:30 PM 46.2°F7.9°C 25.0°F-3.9°C 43% 22.8 mph 36.7 kmh 26.0 mph41.8 kmh 30.20 in1022.7 mb 0.00 in0.0 mm 0.00 in0.0 mm 0.00 in0.0 mm
04:32 PM 46.2°F7.9°C 24.4°F-4.2°C 42% 24.4 mph 39.3 kmh 27.3 mph43.9 kmh 30.20 in1022.7 mb 0.00 in0.0 mm 0.00 in0.0 mm 0.00 in0.0 mm
04:34 PM 46.2°F7.9°C 24.4°F-4.2°C 42% 26.0 mph 41.8 kmh 27.3 mph43.9 kmh 30.21 in1023.0 mb 0.00 in0.0 mm 0.00 in0.0 mm 0.00 in0.0 mm
04:36 PM 46.2°F7.9°C 24.4°F-4.2°C 42% 23.5 mph 37.8 kmh 26.6 mph42.8 kmh 30.20 in1022.7 mb 0.00 in0.0 mm 0.00 in0.0 mm 0.00 in0.0 mm
04:38 PM 46.0°F7.8°C 24.2°F-4.3°C 42% 23.5 mph 37.8 kmh 25.1 mph40.4 kmh 30.20 in1022.7 mb 0.00 in0.0 mm 0.00 in0.0 mm 0.00 in0.0 mm
04:40 PM 46.0°F7.8°C 24.2°F-4.3°C 42% 23.5 mph 37.8 kmh 25.1 mph40.4 kmh 30.20 in1022.7 mb 0.00 in0.0 mm 0.00 in0.0 mm 0.00 in0.0 mm
04:42 PM 46.0°F7.8°C 23.7°F-4.6°C 41% 22.8 mph 36.7 kmh 24.4 mph39.3 kmh 30.20 in1022.7 mb 0.00 in0.0 mm 0.00 in0.0 mm 0.00 in0.0 mm
04:44 PM 46.0°F7.8°C 23.7°F-4.6°C 41% 21.3 mph 34.3 kmh 23.5 mph37.8 kmh 30.21 in1023.0 mb 0.00 in0.0 mm 0.00 in0.0 mm 0.00 in0.0 mm
04:46 PM 45.9°F7.7°C 25.2°F-3.8°C 44% 19.0 mph 30.6 kmh 21.3 mph34.3 kmh 30.21 in1023.0 mb 0.00 in0.0 mm 0.00 in0.0 mm 0.00 in0.0 mm
04:48 PM 45.9°F7.7°C 25.2°F-3.8°C 44% 18.3 mph 29.5 kmh 19.7 mph31.7 kmh 30.21 in1023.0 mb 0.00 in0.0 mm 0.00 in0.0 mm 0.00 in0.0 mm
04:50 PM 45.9°F7.7°C 25.2°F-3.8°C 44% 20.6 mph 33.2 kmh 21.3 mph34.3 kmh 30.22 in1023.4 mb 0.00 in0.0 mm 0.00 in0.0 mm 0.00 in0.0 mm
04:52 PM 45.9°F7.7°C 24.6°F-4.1°C 43% 23.5 mph 37.8 kmh 25.1 mph40.4 kmh 30.21 in1023.0 mb 0.00 in0.0 mm 0.00 in0.0 mm 0.00 in0.0 mm
04:54 PM 45.7°F7.6°C 25.0°F-3.9°C 44% 20.6 mph 33.2 kmh 22.2 mph35.7 kmh 30.21 in1023.0 mb 0.00 in0.0 mm 0.00 in0.0 mm 0.00 in0.0 mm
04:56 PM 45.7°F7.6°C 25.0°F-3.9°C 44% 22.2 mph 35.7 kmh 24.4 mph39.3 kmh 30.21 in1023.0 mb 0.00 in0.0 mm 0.00 in0.0 mm 0.00 in0.0 mm
04:58 PM 45.7°F7.6°C 26.1°F-3.3°C 46% 18.3 mph 29.5 kmh 19.7 mph31.7 kmh 30.21 in1023.0 mb 0.00 in0.0 mm 0.00 in0.0 mm 0.00 in0.0 mm
05:00 PM 45.5°F7.5°C 25.4°F-3.7°C 45% 17.5 mph 28.2 kmh 19.7 mph31.7 kmh 30.22 in1023.4 mb 0.00 in0.0 mm 0.00 in0.0 mm 0.00 in0.0 mm
05:02 PM 45.5°F7.5°C 25.4°F-3.7°C 45% 16.8 mph 27.0 kmh 18.3 mph29.5 kmh 30.22 in1023.4 mb 0.00 in0.0 mm 0.00 in0.0 mm 0.00 in0.0 mm
05:04 PM 45.5°F7.5°C 24.9°F-3.9°C 44% 20.6 mph NNE33.2 kmh NNE 22.8 mph36.7 kmh 30.22 in1023.4 mb 0.00 in0.0 mm 0.00 in0.0 mm 0.00 in0.0 mm
05:06 PM 45.5°F7.5°C 24.3°F-4.3°C 43% 21.3 mph 34.3 kmh 22.8 mph36.7 kmh 30.22 in1023.4 mb 0.00 in0.0 mm 0.00 in0.0 mm 0.00 in0.0 mm
05:08 PM 45.5°F7.5°C 24.3°F-4.3°C 43% 17.5 mph 28.2 kmh 19.0 mph30.6 kmh 30.22 in1023.4 mb 0.00 in0.0 mm 0.00 in0.0 mm 0.00 in0.0 mm
05:10 PM 45.5°F7.5°C 23.8°F-4.6°C 42% 19.7 mph 31.7 kmh 21.3 mph34.3 kmh 30.23 in1023.7 mb 0.00 in0.0 mm 0.00 in0.0 mm 0.00 in0.0 mm
05:13 PM 45.5°F7.5°C 23.2°F-4.9°C 41% 21.3 mph 34.3 kmh 23.5 mph37.8 kmh 30.22 in1023.4 mb 0.00 in0.0 mm 0.00 in0.0 mm 0.00 in0.0 mm
05:15 PM 45.5°F7.5°C 24.3°F-4.3°C 43% 18.3 mph 29.5 kmh 19.7 mph31.7 kmh 30.22 in1023.4 mb 0.00 in0.0 mm 0.00 in0.0 mm 0.00 in0.0 mm
05:17 PM 45.7°F7.6°C 23.9°F-4.5°C 42% 17.5 mph 28.2 kmh 19.7 mph31.7 kmh 30.23 in1023.7 mb 0.00 in0.0 mm 0.00 in0.0 mm 0.00 in0.0 mm
05:19 PM 45.5°F7.5°C 23.8°F-4.6°C 42% 16.8 mph 27.0 kmh 19.0 mph30.6 kmh 30.22 in1023.4 mb 0.00 in0.0 mm 0.00 in0.0 mm 0.00 in0.0 mm
05:21 PM 45.5°F7.5°C 24.3°F-4.3°C 43% 15.9 mph 25.6 kmh 17.5 mph28.2 kmh 30.23 in1023.7 mb 0.00 in0.0 mm 0.00 in0.0 mm 0.00 in0.0 mm
05:23 PM 45.3°F7.4°C 27.8°F-2.3°C 50% 15.9 mph 25.6 kmh 17.5 mph28.2 kmh 30.22 in1023.4 mb 0.00 in0.0 mm 0.00 in0.0 mm 0.00 in0.0 mm
05:25 PM 45.3°F7.4°C 27.3°F-2.6°C 49% 13.7 mph 22.0 kmh 14.5 mph23.3 kmh 30.23 in1023.7 mb 0.00 in0.0 mm 0.00 in0.0 mm 0.00 in0.0 mm
05:27 PM 45.3°F7.4°C 27.8°F-2.3°C 50% 17.5 mph 28.2 kmh 19.0 mph30.6 kmh 30.23 in1023.7 mb 0.00 in0.0 mm 0.00 in0.0 mm 0.00 in0.0 mm
05:29 PM 45.3°F7.4°C 26.8°F-2.9°C 48% 19.0 mph 30.6 kmh 21.3 mph34.3 kmh 30.23 in1023.7 mb 0.00 in0.0 mm 0.00 in0.0 mm 0.00 in0.0 mm
05:31 PM 45.5°F7.5°C 22.0°F-5.6°C 39% 18.3 mph 29.5 kmh 21.3 mph34.3 kmh 30.23 in1023.7 mb 0.00 in0.0 mm 0.00 in0.0 mm 0.00 in0.0 mm
05:33 PM 45.5°F7.5°C 22.6°F-5.2°C 40% 17.5 mph 28.2 kmh 19.0 mph30.6 kmh 30.23 in1023.7 mb 0.00 in0.0 mm 0.00 in0.0 mm 0.00 in0.0 mm
05:35 PM 45.5°F7.5°C 22.6°F-5.2°C 40% 17.5 mph 28.2 kmh 19.0 mph30.6 kmh 30.23 in1023.7 mb 0.00 in0.0 mm 0.00 in0.0 mm 0.00 in0.0 mm
05:37 PM 45.5°F7.5°C 22.0°F-5.6°C 39% 19.7 mph 31.7 kmh 21.3 mph34.3 kmh 30.23 in1023.7 mb 0.00 in0.0 mm 0.00 in0.0 mm 0.00 in0.0 mm
05:39 PM 45.5°F7.5°C 22.6°F-5.2°C 40% 17.5 mph 28.2 kmh 19.0 mph30.6 kmh 30.23 in1023.7 mb 0.00 in0.0 mm 0.00 in0.0 mm 0.00 in0.0 mm
05:41 PM 45.3°F7.4°C 26.8°F-2.9°C 48% 16.8 mph 27.0 kmh 17.5 mph28.2 kmh 30.23 in1023.7 mb 0.00 in0.0 mm 0.00 in0.0 mm 0.00 in0.0 mm
05:43 PM 45.5°F7.5°C 22.6°F-5.2°C 40% 17.5 mph 28.2 kmh 19.0 mph30.6 kmh 30.24 in1024.0 mb 0.00 in0.0 mm 0.00 in0.0 mm 0.00 in0.0 mm
05:45 PM 45.5°F7.5°C 22.6°F-5.2°C 40% 15.9 mph 25.6 kmh 18.3 mph29.5 kmh 30.23 in1023.7 mb 0.00 in0.0 mm 0.00 in0.0 mm 0.00 in0.0 mm
05:47 PM 45.5°F7.5°C 21.4°F-5.9°C 38% 19.0 mph 30.6 kmh 20.6 mph33.2 kmh 30.23 in1023.7 mb 0.00 in0.0 mm 0.00 in0.0 mm 0.00 in0.0 mm
05:49 PM 45.5°F7.5°C 21.4°F-5.9°C 38% 18.3 mph 29.5 kmh 20.6 mph33.2 kmh 30.24 in1024.0 mb 0.00 in0.0 mm 0.00 in0.0 mm 0.00 in0.0 mm
05:51 PM 45.5°F7.5°C 22.6°F-5.2°C 40% 16.8 mph 27.0 kmh 18.3 mph29.5 kmh 30.24 in1024.0 mb 0.00 in0.0 mm 0.00 in0.0 mm 0.00 in0.0 mm
05:53 PM 45.3°F7.4°C 25.8°F-3.4°C 46% 15.2 mph 24.5 kmh 15.9 mph25.6 kmh 30.23 in1023.7 mb 0.00 in0.0 mm 0.00 in0.0 mm 0.00 in0.0 mm
05:55 PM 45.3°F7.4°C 24.7°F-4.1°C 44% 13.0 mph 20.9 kmh 13.7 mph22.0 kmh 30.24 in1024.0 mb 0.00 in0.0 mm 0.00 in0.0 mm 0.00 in0.0 mm
05:57 PM 45.1°F7.3°C 25.1°F-3.8°C 45% 14.5 mph 23.3 kmh 15.9 mph25.6 kmh 30.23 in1023.7 mb 0.00 in0.0 mm 0.00 in0.0 mm 0.00 in0.0 mm
05:59 PM 45.1°F7.3°C 26.1°F-3.3°C 47% 15.2 mph 24.5 kmh 15.9 mph25.6 kmh 30.24 in1024.0 mb 0.00 in0.0 mm 0.00 in0.0 mm 0.00 in0.0 mm
06:01 PM 45.1°F7.3°C 25.6°F-3.6°C 46% 15.2 mph 24.5 kmh 15.9 mph25.6 kmh 30.24 in1024.0 mb 0.00 in0.0 mm 0.00 in0.0 mm 0.00 in0.0 mm
06:03 PM 45.1°F7.3°C 25.6°F-3.6°C 46% 13.0 mph 20.9 kmh 13.7 mph22.0 kmh 30.23 in1023.7 mb 0.00 in0.0 mm 0.00 in0.0 mm 0.00 in0.0 mm
06:05 PM 45.1°F7.3°C 25.6°F-3.6°C 46% 15.2 mph 24.5 kmh 16.8 mph27.0 kmh 30.24 in1024.0 mb 0.00 in0.0 mm 0.00 in0.0 mm 0.00 in0.0 mm
06:07 PM 45.1°F7.3°C 25.1°F-3.8°C 45% 12.1 mph 19.5 kmh 13.7 mph22.0 kmh 30.24 in1024.0 mb 0.00 in0.0 mm 0.00 in0.0 mm 0.00 in0.0 mm
06:11 PM 45.0°F7.2°C 24.9°F-3.9°C 45% 13.0 mph 20.9 kmh 14.5 mph23.3 kmh 30.24 in1024.0 mb 0.00 in0.0 mm 0.00 in0.0 mm 0.00 in0.0 mm
06:13 PM 45.0°F7.2°C 24.9°F-3.9°C 45% 15.2 mph 24.5 kmh 16.8 mph27.0 kmh 30.25 in1024.4 mb 0.00 in0.0 mm 0.00 in0.0 mm 0.00 in0.0 mm
06:15 PM 45.0°F7.2°C 24.9°F-3.9°C 45% 14.5 mph 23.3 kmh 15.2 mph24.5 kmh 30.24 in1024.0 mb 0.00 in0.0 mm 0.00 in0.0 mm 0.00 in0.0 mm
06:17 PM 45.0°F7.2°C 25.4°F-3.7°C 46% 15.9 mph 25.6 kmh 17.5 mph28.2 kmh 30.25 in1024.4 mb 0.00 in0.0 mm 0.00 in0.0 mm 0.00 in0.0 mm
06:19 PM 45.0°F7.2°C 24.9°F-3.9°C 45% 15.2 mph 24.5 kmh 16.8 mph27.0 kmh 30.24 in1024.0 mb 0.00 in0.0 mm 0.00 in0.0 mm 0.00 in0.0 mm
06:21 PM 45.0°F7.2°C 24.9°F-3.9°C 45% 19.0 mph 30.6 kmh 20.6 mph33.2 kmh 30.24 in1024.0 mb 0.00 in0.0 mm 0.00 in0.0 mm 0.00 in0.0 mm
06:23 PM 45.0°F7.2°C 25.4°F-3.7°C 46% 16.8 mph 27.0 kmh 18.3 mph29.5 kmh 30.24 in1024.0 mb 0.00 in0.0 mm 0.00 in0.0 mm 0.00 in0.0 mm
06:25 PM 45.0°F7.2°C 25.4°F-3.7°C 46% 19.0 mph 30.6 kmh 21.3 mph34.3 kmh 30.25 in1024.4 mb 0.00 in0.0 mm 0.00 in0.0 mm 0.00 in0.0 mm
06:27 PM 45.0°F7.2°C 25.4°F-3.7°C 46% 14.5 mph 23.3 kmh 17.5 mph28.2 kmh 30.25 in1024.4 mb 0.00 in0.0 mm 0.00 in0.0 mm 0.00 in0.0 mm
06:29 PM 44.8°F7.1°C 25.3°F-3.7°C 46% 17.5 mph 28.2 kmh 19.7 mph31.7 kmh 30.25 in1024.4 mb 0.00 in0.0 mm 0.00 in0.0 mm 0.00 in0.0 mm
06:31 PM 44.8°F7.1°C 24.2°F-4.3°C 44% 15.9 mph 25.6 kmh 17.5 mph28.2 kmh 30.24 in1024.0 mb 0.00 in0.0 mm 0.00 in0.0 mm 0.00 in0.0 mm
06:33 PM 45.0°F7.2°C 23.8°F-4.6°C 43% 20.6 mph 33.2 kmh 22.8 mph36.7 kmh 30.25 in1024.4 mb 0.00 in0.0 mm 0.00 in0.0 mm 0.00 in0.0 mm
06:35 PM 45.0°F7.2°C 26.0°F-3.3°C 47% 14.5 mph 23.3 kmh 16.8 mph27.0 kmh 30.24 in1024.0 mb 0.00 in0.0 mm 0.00 in0.0 mm 0.00 in0.0 mm
06:37 PM 45.0°F7.2°C 24.9°F-3.9°C 45% 17.5 mph 28.2 kmh 19.0 mph30.6 kmh 30.24 in1024.0 mb 0.00 in0.0 mm 0.00 in0.0 mm 0.00 in0.0 mm
06:39 PM 45.0°F7.2°C 24.4°F-4.2°C 44% 19.7 mph 31.7 kmh 20.6 mph33.2 kmh 30.25 in1024.4 mb 0.00 in0.0 mm 0.00 in0.0 mm 0.00 in0.0 mm
06:41 PM 45.0°F7.2°C 24.9°F-3.9°C 45% 18.3 mph 29.5 kmh 19.7 mph31.7 kmh 30.24 in1024.0 mb 0.00 in0.0 mm 0.00 in0.0 mm 0.00 in0.0 mm
06:43 PM 45.0°F7.2°C 24.9°F-3.9°C 45% 18.3 mph 29.5 kmh 19.7 mph31.7 kmh 30.24 in1024.0 mb 0.00 in0.0 mm 0.00 in0.0 mm 0.00 in0.0 mm
06:45 PM 45.1°F7.3°C 24.5°F-4.2°C 44% 19.7 mph 31.7 kmh 22.2 mph35.7 kmh 30.24 in1024.0 mb 0.00 in0.0 mm 0.00 in0.0 mm 0.00 in0.0 mm
06:47 PM 45.0°F7.2°C 24.9°F-3.9°C 45% 23.5 mph 37.8 kmh 26.6 mph42.8 kmh 30.25 in1024.4 mb 0.00 in0.0 mm 0.00 in0.0 mm 0.00 in0.0 mm
06:49 PM 45.0°F7.2°C 24.9°F-3.9°C 45% 23.5 mph 37.8 kmh 26.6 mph42.8 kmh 30.25 in1024.4 mb 0.00 in0.0 mm 0.00 in0.0 mm 0.00 in0.0 mm
06:51 PM 45.1°F7.3°C 26.1°F-3.3°C 47% 19.0 mph 30.6 kmh 21.3 mph34.3 kmh 30.25 in1024.4 mb 0.00 in0.0 mm 0.00 in0.0 mm 0.00 in0.0 mm
06:53 PM 45.1°F7.3°C 25.6°F-3.6°C 46% 23.5 mph 37.8 kmh 26.0 mph41.8 kmh 30.25 in1024.4 mb 0.00 in0.0 mm 0.00 in0.0 mm 0.00 in0.0 mm
06:57 PM 45.3°F7.4°C 24.2°F-4.3°C 43% 23.5 mph 37.8 kmh 25.1 mph40.4 kmh 30.24 in1024.0 mb 0.00 in0.0 mm 0.00 in0.0 mm 0.00 in0.0 mm
06:59 PM 45.3°F7.4°C 24.2°F-4.3°C 43% 25.1 mph 40.4 kmh 27.3 mph43.9 kmh 30.25 in1024.4 mb 0.00 in0.0 mm 0.00 in0.0 mm 0.00 in0.0 mm
07:01 PM 45.3°F7.4°C 25.2°F-3.8°C 45% 19.7 mph 31.7 kmh 22.2 mph35.7 kmh 30.25 in1024.4 mb 0.00 in0.0 mm 0.00 in0.0 mm 0.00 in0.0 mm
07:03 PM 45.1°F7.3°C 24.5°F-4.2°C 44% 20.6 mph 33.2 kmh 21.3 mph34.3 kmh 30.25 in1024.4 mb 0.00 in0.0 mm 0.00 in0.0 mm 0.00 in0.0 mm
07:05 PM 45.0°F7.2°C 24.4°F-4.2°C 44% 19.0 mph 30.6 kmh 22.8 mph36.7 kmh 30.25 in1024.4 mb 0.00 in0.0 mm 0.00 in0.0 mm 0.00 in0.0 mm
07:07 PM 45.0°F7.2°C 24.4°F-4.2°C 44% 18.3 mph 29.5 kmh 19.7 mph31.7 kmh 30.26 in1024.7 mb 0.00 in0.0 mm 0.00 in0.0 mm 0.00 in0.0 mm
07:09 PM 45.0°F7.2°C 24.9°F-3.9°C 45% 19.0 mph 30.6 kmh 20.6 mph33.2 kmh 30.25 in1024.4 mb 0.00 in0.0 mm 0.00 in0.0 mm 0.00 in0.0 mm
07:11 PM 44.8°F7.1°C 25.8°F-3.4°C 47% 15.9 mph 25.6 kmh 19.0 mph30.6 kmh 30.25 in1024.4 mb 0.00 in0.0 mm 0.00 in0.0 mm 0.00 in0.0 mm
07:13 PM 44.8°F7.1°C 24.8°F-4.0°C 45% 19.0 mph 30.6 kmh 20.6 mph33.2 kmh 30.26 in1024.7 mb 0.00 in0.0 mm 0.00 in0.0 mm 0.00 in0.0 mm
07:15 PM 44.6°F7.0°C 24.6°F-4.1°C 45% 21.3 mph 34.3 kmh 22.2 mph35.7 kmh 30.26 in1024.7 mb 0.00 in0.0 mm 0.00 in0.0 mm 0.00 in0.0 mm
07:17 PM 44.6°F7.0°C 24.6°F-4.1°C 45% 22.2 mph 35.7 kmh 22.8 mph36.7 kmh 30.26 in1024.7 mb 0.00 in0.0 mm 0.00 in0.0 mm 0.00 in0.0 mm
07:19 PM 44.6°F7.0°C 24.6°F-4.1°C 45% 18.3 mph 29.5 kmh 19.0 mph30.6 kmh 30.26 in1024.7 mb 0.00 in0.0 mm 0.00 in0.0 mm 0.00 in0.0 mm
07:21 PM 44.4°F6.9°C 25.5°F-3.6°C 47% 17.5 mph 28.2 kmh 19.7 mph31.7 kmh 30.26 in1024.7 mb 0.00 in0.0 mm 0.00 in0.0 mm 0.00 in0.0 mm
07:23 PM 44.4°F6.9°C 24.4°F-4.2°C 45% 16.8 mph 27.0 kmh 19.0 mph30.6 kmh 30.26 in1024.7 mb 0.00 in0.0 mm 0.00 in0.0 mm 0.00 in0.0 mm
07:25 PM 44.4°F6.9°C 24.4°F-4.2°C 45% 19.7 mph 31.7 kmh 21.3 mph34.3 kmh 30.26 in1024.7 mb 0.00 in0.0 mm 0.00 in0.0 mm 0.00 in0.0 mm
07:27 PM 44.4°F6.9°C 24.4°F-4.2°C 45% 18.3 mph 29.5 kmh 19.7 mph31.7 kmh 30.26 in1024.7 mb 0.00 in0.0 mm 0.00 in0.0 mm 0.00 in0.0 mm
07:29 PM 44.4°F6.9°C 25.5°F-3.6°C 47% 17.5 mph 28.2 kmh 19.0 mph30.6 kmh 30.27 in1025.1 mb 0.00 in0.0 mm 0.00 in0.0 mm 0.00 in0.0 mm
07:31 PM 44.4°F6.9°C 26.0°F-3.3°C 48% 17.5 mph 28.2 kmh 20.6 mph33.2 kmh 30.27 in1025.1 mb 0.00 in0.0 mm 0.00 in0.0 mm 0.00 in0.0 mm
07:33 PM 44.4°F6.9°C 25.5°F-3.6°C 47% 15.2 mph 24.5 kmh 16.8 mph27.0 kmh 30.27 in1025.1 mb 0.00 in0.0 mm 0.00 in0.0 mm 0.00 in0.0 mm
07:35 PM 44.4°F6.9°C 25.0°F-3.9°C 46% 15.2 mph 24.5 kmh 15.9 mph25.6 kmh 30.27 in1025.1 mb 0.00 in0.0 mm 0.00 in0.0 mm 0.00 in0.0 mm
07:37 PM 44.2°F6.8°C 24.3°F-4.3°C 45% 15.2 mph 24.5 kmh 19.7 mph31.7 kmh 30.27 in1025.1 mb 0.00 in0.0 mm 0.00 in0.0 mm 0.00 in0.0 mm
07:39 PM 44.4°F6.9°C 25.0°F-3.9°C 46% 19.0 mph 30.6 kmh 21.3 mph34.3 kmh 30.27 in1025.1 mb 0.00 in0.0 mm 0.00 in0.0 mm 0.00 in0.0 mm
07:41 PM 44.4°F6.9°C 25.0°F-3.9°C 46% 19.0 mph 30.6 kmh 21.3 mph34.3 kmh 30.28 in1025.4 mb 0.00 in0.0 mm 0.00 in0.0 mm 0.00 in0.0 mm
07:43 PM 44.2°F6.8°C 24.8°F-4.0°C 46% 19.7 mph NNE31.7 kmh NNE 22.2 mph35.7 kmh 30.28 in1025.4 mb 0.00 in0.0 mm 0.00 in0.0 mm 0.00 in0.0 mm
07:45 PM 44.4°F6.9°C 25.0°F-3.9°C 46% 22.8 mph 36.7 kmh 24.4 mph39.3 kmh 30.28 in1025.4 mb 0.00 in0.0 mm 0.00 in0.0 mm 0.00 in0.0 mm
07:47 PM 44.4°F6.9°C 25.5°F-3.6°C 47% 18.3 mph 29.5 kmh 20.6 mph33.2 kmh 30.28 in1025.4 mb 0.00 in0.0 mm 0.00 in0.0 mm 0.00 in0.0 mm
07:49 PM 44.2°F6.8°C 25.3°F-3.7°C 47% 24.4 mph 39.3 kmh 26.6 mph42.8 kmh 30.28 in1025.4 mb 0.00 in0.0 mm 0.00 in0.0 mm 0.00 in0.0 mm
07:51 PM 44.2°F6.8°C 26.8°F-2.9°C 50% 16.8 mph NNE27.0 kmh NNE 17.5 mph28.2 kmh 30.28 in1025.4 mb 0.00 in0.0 mm 0.00 in0.0 mm 0.00 in0.0 mm
07:53 PM 44.1°F6.7°C 26.6°F-3.0°C 50% 19.7 mph NNE31.7 kmh NNE 21.3 mph34.3 kmh 30.28 in1025.4 mb 0.00 in0.0 mm 0.00 in0.0 mm 0.00 in0.0 mm
07:55 PM 44.1°F6.7°C 27.1°F-2.7°C 51% 17.5 mph 28.2 kmh 20.6 mph33.2 kmh 30.28 in1025.4 mb 0.00 in0.0 mm 0.00 in0.0 mm 0.00 in0.0 mm
07:57 PM 44.1°F6.7°C 27.1°F-2.7°C 51% 20.6 mph 33.2 kmh 22.8 mph36.7 kmh 30.28 in1025.4 mb 0.00 in0.0 mm 0.00 in0.0 mm 0.00 in0.0 mm
07:59 PM 43.9°F6.6°C 26.9°F-2.8°C 51% 24.4 mph NNE39.3 kmh NNE 28.9 mph46.5 kmh 30.27 in1025.1 mb 0.00 in0.0 mm 0.00 in0.0 mm 0.00 in0.0 mm
08:01 PM 43.9°F6.6°C 26.9°F-2.8°C 51% 22.8 mph NE36.7 kmh NE 26.6 mph42.8 kmh 30.28 in1025.4 mb 0.00 in0.0 mm 0.00 in0.0 mm 0.00 in0.0 mm
08:03 PM 43.9°F6.6°C 26.9°F-2.8°C 51% 22.8 mph NE36.7 kmh NE 26.6 mph42.8 kmh 30.28 in1025.4 mb 0.00 in0.0 mm 0.00 in0.0 mm 0.00 in0.0 mm
08:05 PM 43.9°F6.6°C 26.9°F-2.8°C 51% 22.8 mph NE36.7 kmh NE 26.6 mph42.8 kmh 30.29 in1025.7 mb 0.00 in0.0 mm 0.00 in0.0 mm 0.00 in0.0 mm
08:07 PM 43.7°F6.5°C 26.8°F-2.9°C 51% 19.0 mph NNE30.6 kmh NNE 19.7 mph31.7 kmh 30.28 in1025.4 mb 0.00 in0.0 mm 0.00 in0.0 mm 0.00 in0.0 mm
08:09 PM 43.7°F6.5°C 26.3°F-3.2°C 50% 25.1 mph 40.4 kmh 28.2 mph45.4 kmh 30.28 in1025.4 mb 0.00 in0.0 mm 0.00 in0.0 mm 0.00 in0.0 mm
08:11 PM 43.7°F6.5°C 26.3°F-3.2°C 50% 25.1 mph 40.4 kmh 28.2 mph45.4 kmh 30.28 in1025.4 mb 0.00 in0.0 mm 0.00 in0.0 mm 0.00 in0.0 mm
08:13 PM 43.9°F6.6°C 26.5°F-3.1°C 50% 20.6 mph NNE33.2 kmh NNE 22.2 mph35.7 kmh 30.28 in1025.4 mb 0.00 in0.0 mm 0.00 in0.0 mm 0.00 in0.0 mm
08:15 PM 43.9°F6.6°C 26.9°F-2.8°C 51% 20.6 mph NNE33.2 kmh NNE 22.2 mph35.7 kmh 30.28 in1025.4 mb 0.00 in0.0 mm 0.00 in0.0 mm 0.00 in0.0 mm
08:17 PM 43.7°F6.5°C 26.8°F-2.9°C 51% 19.0 mph NE30.6 kmh NE 19.7 mph31.7 kmh 30.29 in1025.7 mb 0.00 in0.0 mm 0.00 in0.0 mm 0.00 in0.0 mm
08:19 PM 43.5°F6.4°C 26.6°F-3.0°C 51% 18.3 mph NNE29.5 kmh NNE 19.0 mph30.6 kmh 30.28 in1025.4 mb 0.00 in0.0 mm 0.00 in0.0 mm 0.00 in0.0 mm
08:21 PM 43.5°F6.4°C 26.6°F-3.0°C 51% 15.2 mph 24.5 kmh 16.8 mph27.0 kmh 30.29 in1025.7 mb 0.00 in0.0 mm 0.00 in0.0 mm 0.00 in0.0 mm
08:23 PM 43.3°F6.3°C 26.4°F-3.1°C 51% 17.5 mph NNE28.2 kmh NNE 19.0 mph30.6 kmh 30.29 in1025.7 mb 0.00 in0.0 mm 0.00 in0.0 mm 0.00 in0.0 mm
08:25 PM 43.3°F6.3°C 26.4°F-3.1°C 51% 20.6 mph 33.2 kmh 22.2 mph35.7 kmh 30.29 in1025.7 mb 0.00 in0.0 mm 0.00 in0.0 mm 0.00 in0.0 mm
08:27 PM 43.3°F6.3°C 26.4°F-3.1°C 51% 17.5 mph NNE28.2 kmh NNE 20.6 mph33.2 kmh 30.28 in1025.4 mb 0.00 in0.0 mm 0.00 in0.0 mm 0.00 in0.0 mm
08:29 PM 43.3°F6.3°C 26.4°F-3.1°C 51% 16.8 mph NNE27.0 kmh NNE 19.0 mph30.6 kmh 30.29 in1025.7 mb 0.00 in0.0 mm 0.00 in0.0 mm 0.00 in0.0 mm
08:31 PM 43.3°F6.3°C 27.4°F-2.6°C 53% 18.3 mph 29.5 kmh 19.7 mph31.7 kmh 30.28 in1025.4 mb 0.00 in0.0 mm 0.00 in0.0 mm 0.00 in0.0 mm
08:33 PM 43.3°F6.3°C 27.4°F-2.6°C 53% 15.2 mph NNE24.5 kmh NNE 16.8 mph27.0 kmh 30.28 in1025.4 mb 0.00 in0.0 mm 0.00 in0.0 mm 0.00 in0.0 mm
08:35 PM 43.3°F6.3°C 27.4°F-2.6°C 53% 13.0 mph 20.9 kmh 14.5 mph23.3 kmh 30.29 in1025.7 mb 0.00 in0.0 mm 0.00 in0.0 mm 0.00 in0.0 mm
08:37 PM 43.3°F6.3°C 27.8°F-2.3°C 54% 12.1 mph 19.5 kmh 13.7 mph22.0 kmh 30.29 in1025.7 mb 0.00 in0.0 mm 0.00 in0.0 mm 0.00 in0.0 mm
08:39 PM 43.3°F6.3°C 28.3°F-2.1°C 55% 12.1 mph 19.5 kmh 13.7 mph22.0 kmh 30.28 in1025.4 mb 0.00 in0.0 mm 0.00 in0.0 mm 0.00 in0.0 mm
08:41 PM 43.2°F6.2°C 28.1°F-2.2°C 55% 13.7 mph NNE22.0 kmh NNE 15.2 mph24.5 kmh 30.27 in1025.1 mb 0.00 in0.0 mm 0.00 in0.0 mm 0.00 in0.0 mm
08:43 PM 43.2°F6.2°C 27.7°F-2.4°C 54% 10.7 mph 17.2 kmh 11.4 mph18.3 kmh 30.28 in1025.4 mb 0.00 in0.0 mm 0.00 in0.0 mm 0.00 in0.0 mm
08:45 PM 43.0°F6.1°C 26.6°F-3.0°C 52% 13.7 mph 22.0 kmh 14.5 mph23.3 kmh 30.28 in1025.4 mb 0.00 in0.0 mm 0.00 in0.0 mm 0.00 in0.0 mm
08:47 PM 43.2°F6.2°C 27.2°F-2.7°C 53% 13.0 mph NNE20.9 kmh NNE 13.7 mph22.0 kmh 30.28 in1025.4 mb 0.00 in0.0 mm 0.00 in0.0 mm 0.00 in0.0 mm
08:49 PM 43.0°F6.1°C 27.0°F-2.8°C 53% 12.1 mph NNE19.5 kmh NNE 13.7 mph22.0 kmh 30.28 in1025.4 mb 0.00 in0.0 mm 0.00 in0.0 mm 0.00 in0.0 mm
08:51 PM 42.8°F6.0°C 26.4°F-3.1°C 52% 13.0 mph NNE20.9 kmh NNE 13.7 mph22.0 kmh 30.28 in1025.4 mb 0.00 in0.0 mm 0.00 in0.0 mm 0.00 in0.0 mm
08:53 PM 42.8°F6.0°C 26.4°F-3.1°C 52% 13.0 mph 20.9 kmh 14.5 mph23.3 kmh 30.28 in1025.4 mb 0.00 in0.0 mm 0.00 in0.0 mm 0.00 in0.0 mm
08:55 PM 42.8°F6.0°C 26.4°F-3.1°C 52% 13.0 mph 20.9 kmh 14.5 mph23.3 kmh 30.29 in1025.7 mb 0.00 in0.0 mm 0.00 in0.0 mm 0.00 in0.0 mm
08:57 PM 42.6°F5.9°C 26.2°F-3.2°C 52% 13.0 mph 20.9 kmh 14.5 mph23.3 kmh 30.29 in1025.7 mb 0.00 in0.0 mm 0.00 in0.0 mm 0.00 in0.0 mm
08:59 PM 42.4°F5.8°C 26.5°F-3.1°C 53% 13.0 mph 20.9 kmh 13.7 mph22.0 kmh 30.29 in1025.7 mb 0.00 in0.0 mm 0.00 in0.0 mm 0.00 in0.0 mm
09:02 PM 42.4°F5.8°C 26.5°F-3.1°C 53% 13.7 mph 22.0 kmh 14.5 mph23.3 kmh 30.29 in1025.7 mb 0.00 in0.0 mm 0.00 in0.0 mm 0.00 in0.0 mm
09:04 PM 42.4°F5.8°C 27.0°F-2.8°C 54% 12.1 mph NNE19.5 kmh NNE 15.2 mph24.5 kmh 30.30 in1026.1 mb 0.00 in0.0 mm 0.00 in0.0 mm 0.00 in0.0 mm
09:06 PM 42.4°F5.8°C 27.0°F-2.8°C 54% 12.1 mph NE19.5 kmh NE 14.5 mph23.3 kmh 30.29 in1025.7 mb 0.00 in0.0 mm 0.00 in0.0 mm 0.00 in0.0 mm
09:08 PM 42.3°F5.7°C 26.8°F-2.9°C 54% 13.7 mph 22.0 kmh 15.2 mph24.5 kmh 30.29 in1025.7 mb 0.00 in0.0 mm 0.00 in0.0 mm 0.00 in0.0 mm
09:10 PM 42.4°F5.8°C 27.4°F-2.6°C 55% 14.5 mph NNE23.3 kmh NNE 15.9 mph25.6 kmh 30.29 in1025.7 mb 0.00 in0.0 mm 0.00 in0.0 mm 0.00 in0.0 mm
09:12 PM 42.4°F5.8°C 28.3°F-2.1°C 57% 14.5 mph 23.3 kmh 16.8 mph27.0 kmh 30.29 in1025.7 mb 0.00 in0.0 mm 0.00 in0.0 mm 0.00 in0.0 mm
09:14 PM 42.6°F5.9°C 29.3°F-1.5°C 59% 13.0 mph 20.9 kmh 13.7 mph22.0 kmh 30.30 in1026.1 mb 0.00 in0.0 mm 0.00 in0.0 mm 0.00 in0.0 mm
09:16 PM 42.8°F6.0°C 28.6°F-1.9°C 57% 17.5 mph 28.2 kmh 19.0 mph30.6 kmh 30.30 in1026.1 mb 0.00 in0.0 mm 0.00 in0.0 mm 0.00 in0.0 mm
09:18 PM 42.8°F6.0°C 28.2°F-2.1°C 56% 14.5 mph 23.3 kmh 15.9 mph25.6 kmh 30.30 in1026.1 mb 0.00 in0.0 mm 0.00 in0.0 mm 0.00 in0.0 mm
09:20 PM 42.8°F6.0°C 27.8°F-2.3°C 55% 17.5 mph NNE28.2 kmh NNE 19.7 mph31.7 kmh 30.30 in1026.1 mb 0.00 in0.0 mm 0.00 in0.0 mm 0.00 in0.0 mm
09:22 PM 42.8°F6.0°C 27.3°F-2.6°C 54% 15.9 mph 25.6 kmh 17.5 mph28.2 kmh 30.30 in1026.1 mb 0.00 in0.0 mm 0.00 in0.0 mm 0.00 in0.0 mm
09:24 PM 42.8°F6.0°C 26.9°F-2.8°C 53% 12.1 mph 19.5 kmh 13.7 mph22.0 kmh 30.30 in1026.1 mb 0.00 in0.0 mm 0.00 in0.0 mm 0.00 in0.0 mm
09:26 PM 42.8°F6.0°C 27.3°F-2.6°C 54% 13.7 mph 22.0 kmh 14.5 mph23.3 kmh 30.31 in1026.4 mb 0.00 in0.0 mm 0.00 in0.0 mm 0.00 in0.0 mm
09:28 PM 42.8°F6.0°C 27.8°F-2.3°C 55% 11.4 mph 18.3 kmh 12.1 mph19.5 kmh 30.31 in1026.4 mb 0.00 in0.0 mm 0.00 in0.0 mm 0.00 in0.0 mm
09:30 PM 42.6°F5.9°C 28.5°F-1.9°C 57% 13.0 mph 20.9 kmh 13.7 mph22.0 kmh 30.30 in1026.1 mb 0.00 in0.0 mm 0.00 in0.0 mm 0.00 in0.0 mm
09:32 PM 42.6°F5.9°C 28.5°F-1.9°C 57% 11.4 mph 18.3 kmh 13.0 mph20.9 kmh 30.30 in1026.1 mb 0.00 in0.0 mm 0.00 in0.0 mm 0.00 in0.0 mm
09:34 PM 42.6°F5.9°C 28.5°F-1.9°C 57% 9.2 mph 14.8 kmh 9.8 mph15.8 kmh 30.30 in1026.1 mb 0.00 in0.0 mm 0.00 in0.0 mm 0.00 in0.0 mm
09:36 PM 42.6°F5.9°C 28.0°F-2.2°C 56% 8.3 mph 13.4 kmh 9.8 mph15.8 kmh 30.30 in1026.1 mb 0.00 in0.0 mm 0.00 in0.0 mm 0.00 in0.0 mm
09:38 PM 42.6°F5.9°C 27.6°F-2.4°C 55% 9.2 mph 14.8 kmh 10.7 mph17.2 kmh 30.31 in1026.4 mb 0.00 in0.0 mm 0.00 in0.0 mm 0.00 in0.0 mm
09:40 PM 42.6°F5.9°C 26.7°F-2.9°C 53% 9.8 mph 15.8 kmh 10.7 mph17.2 kmh 30.30 in1026.1 mb 0.00 in0.0 mm 0.00 in0.0 mm 0.00 in0.0 mm
09:42 PM 42.6°F5.9°C 27.6°F-2.4°C 55% 8.3 mph 13.4 kmh 9.8 mph15.8 kmh 30.30 in1026.1 mb 0.00 in0.0 mm 0.00 in0.0 mm 0.00 in0.0 mm
09:44 PM 42.6°F5.9°C 27.6°F-2.4°C 55% 10.7 mph 17.2 kmh 11.4 mph18.3 kmh 30.30 in1026.1 mb 0.00 in0.0 mm 0.00 in0.0 mm 0.00 in0.0 mm
09:46 PM 42.6°F5.9°C 28.9°F-1.7°C 58% 9.8 mph 15.8 kmh 12.1 mph19.5 kmh 30.31 in1026.4 mb 0.00 in0.0 mm 0.00 in0.0 mm 0.00 in0.0 mm
09:48 PM 42.6°F5.9°C 28.9°F-1.7°C 58% 10.7 mph 17.2 kmh 11.4 mph18.3 kmh 30.31 in1026.4 mb 0.00 in0.0 mm 0.00 in0.0 mm 0.00 in0.0 mm
09:50 PM 42.6°F5.9°C 28.9°F-1.7°C 58% 9.2 mph 14.8 kmh 9.8 mph15.8 kmh 30.30 in1026.1 mb 0.00 in0.0 mm 0.00 in0.0 mm 0.00 in0.0 mm
09:52 PM 42.6°F5.9°C 29.3°F-1.5°C 59% 9.2 mph NNE14.8 kmh NNE 9.8 mph15.8 kmh 30.31 in1026.4 mb 0.00 in0.0 mm 0.00 in0.0 mm 0.00 in0.0 mm
09:54 PM 42.4°F5.8°C 29.6°F-1.3°C 60% 8.3 mph NNE13.4 kmh NNE 9.2 mph14.8 kmh 30.31 in1026.4 mb 0.00 in0.0 mm 0.00 in0.0 mm 0.00 in0.0 mm
09:56 PM 42.3°F5.7°C 28.1°F-2.2°C 57% 11.4 mph NNE18.3 kmh NNE 12.1 mph19.5 kmh 30.30 in1026.1 mb 0.00 in0.0 mm 0.00 in0.0 mm 0.00 in0.0 mm
09:58 PM 42.1°F5.6°C 28.0°F-2.2°C 57% 11.4 mph 18.3 kmh 12.1 mph19.5 kmh 30.30 in1026.1 mb 0.00 in0.0 mm 0.00 in0.0 mm 0.00 in0.0 mm
10:00 PM 42.1°F5.6°C 27.5°F-2.5°C 56% 17.5 mph 28.2 kmh 18.3 mph29.5 kmh 30.31 in1026.4 mb 0.00 in0.0 mm 0.00 in0.0 mm 0.00 in0.0 mm
10:02 PM 42.3°F5.7°C 27.7°F-2.4°C 56% 13.0 mph 20.9 kmh 13.7 mph22.0 kmh 30.31 in1026.4 mb 0.00 in0.0 mm 0.00 in0.0 mm 0.00 in0.0 mm
10:04 PM 42.3°F5.7°C 27.7°F-2.4°C 56% 12.1 mph 19.5 kmh 13.0 mph20.9 kmh 30.31 in1026.4 mb 0.00 in0.0 mm 0.00 in0.0 mm 0.00 in0.0 mm
10:06 PM 42.6°F5.9°C 27.6°F-2.4°C 55% 14.5 mph 23.3 kmh 15.2 mph24.5 kmh 30.30 in1026.1 mb 0.00 in0.0 mm 0.00 in0.0 mm 0.00 in0.0 mm
10:08 PM 42.6°F5.9°C 27.6°F-2.4°C 55% 12.1 mph 19.5 kmh 13.0 mph20.9 kmh 30.31 in1026.4 mb 0.00 in0.0 mm 0.00 in0.0 mm 0.00 in0.0 mm
10:10 PM 43.0°F6.1°C 27.5°F-2.5°C 54% 15.9 mph 25.6 kmh 19.0 mph30.6 kmh 30.30 in1026.1 mb 0.00 in0.0 mm 0.00 in0.0 mm 0.00 in0.0 mm
10:12 PM 43.0°F6.1°C 27.5°F-2.5°C 54% 15.2 mph 24.5 kmh 15.9 mph25.6 kmh 30.31 in1026.4 mb 0.00 in0.0 mm 0.00 in0.0 mm 0.00 in0.0 mm
10:14 PM 43.2°F6.2°C 27.7°F-2.4°C 54% 14.5 mph 23.3 kmh 15.2 mph24.5 kmh 30.31 in1026.4 mb 0.00 in0.0 mm 0.00 in0.0 mm 0.00 in0.0 mm
10:16 PM 42.8°F6.0°C 27.3°F-2.6°C 54% 13.0 mph NW20.9 kmh NW 13.7 mph22.0 kmh 30.31 in1026.4 mb 0.00 in0.0 mm 0.00 in0.0 mm 0.00 in0.0 mm
10:18 PM 41.9°F5.5°C 25.1°F-3.8°C 51% 8.3 mph W13.4 kmh W 9.8 mph15.8 kmh 30.31 in1026.4 mb 0.00 in0.0 mm 0.00 in0.0 mm 0.00 in0.0 mm
10:20 PM 41.4°F5.2°C 24.1°F-4.4°C 50% 7.6 mph W12.2 kmh W 9.2 mph14.8 kmh 30.31 in1026.4 mb 0.00 in0.0 mm 0.00 in0.0 mm 0.00 in0.0 mm
10:22 PM 40.8°F4.9°C 23.6°F-4.7°C 50% 3.8 mph W6.1 kmh W 4.5 mph7.2 kmh 30.31 in1026.4 mb 0.00 in0.0 mm 0.00 in0.0 mm 0.00 in0.0 mm
10:24 PM 40.5°F4.7°C 23.3°F-4.8°C 50% 2.2 mph W3.5 kmh W 3.1 mph5.0 kmh 30.31 in1026.4 mb 0.00 in0.0 mm 0.00 in0.0 mm 0.00 in0.0 mm
10:26 PM 39.9°F4.4°C 22.8°F-5.1°C 50% 2.2 mph W3.5 kmh W 3.8 mph6.1 kmh 30.31 in1026.4 mb 0.00 in0.0 mm 0.00 in0.0 mm 0.00 in0.0 mm
10:28 PM 39.4°F4.1°C 22.3°F-5.4°C 50% 1.6 mph WSW2.6 kmh WSW 3.1 mph5.0 kmh 30.31 in1026.4 mb 0.00 in0.0 mm 0.00 in0.0 mm 0.00 in0.0 mm
10:30 PM 38.8°F3.8°C 21.8°F-5.7°C 50% 3.8 mph W6.1 kmh W 4.5 mph7.2 kmh 30.32 in1026.8 mb 0.00 in0.0 mm 0.00 in0.0 mm 0.00 in0.0 mm
10:32 PM 38.5°F3.6°C 21.5°F-5.8°C 50% 6.0 mph W9.7 kmh W 7.6 mph12.2 kmh 30.31 in1026.4 mb 0.00 in0.0 mm 0.00 in0.0 mm 0.00 in0.0 mm
10:34 PM 38.1°F3.4°C 21.6°F-5.8°C 51% 5.4 mph NW8.7 kmh NW 6.0 mph9.7 kmh 30.31 in1026.4 mb 0.00 in0.0 mm 0.00 in0.0 mm 0.00 in0.0 mm
10:36 PM 37.9°F3.3°C 21.9°F-5.6°C 52% 6.0 mph NW9.7 kmh NW 6.9 mph11.1 kmh 30.31 in1026.4 mb 0.00 in0.0 mm 0.00 in0.0 mm 0.00 in0.0 mm
10:38 PM 37.9°F3.3°C 23.7°F-4.6°C 56% 7.6 mph NW12.2 kmh NW 9.2 mph14.8 kmh 30.31 in1026.4 mb 0.00 in0.0 mm 0.00 in0.0 mm 0.00 in0.0 mm
10:40 PM 37.9°F3.3°C 23.7°F-4.6°C 56% 4.5 mph NW7.2 kmh NW 6.0 mph9.7 kmh 30.31 in1026.4 mb 0.00 in0.0 mm 0.00 in0.0 mm 0.00 in0.0 mm
10:42 PM 38.3°F3.5°C 25.7°F-3.5°C 60% 9.2 mph NW14.8 kmh NW 9.8 mph15.8 kmh 30.31 in1026.4 mb 0.00 in0.0 mm 0.00 in0.0 mm 0.00 in0.0 mm
10:44 PM 39.0°F3.9°C 26.3°F-3.2°C 60% 9.8 mph 15.8 kmh 12.1 mph19.5 kmh 30.31 in1026.4 mb 0.00 in0.0 mm 0.00 in0.0 mm 0.00 in0.0 mm
10:46 PM 40.5°F4.7°C 28.1°F-2.2°C 61% 12.1 mph 19.5 kmh 13.7 mph22.0 kmh 30.31 in1026.4 mb 0.00 in0.0 mm 0.00 in0.0 mm 0.00 in0.0 mm
10:48 PM 40.6°F4.8°C 28.7°F-1.8°C 62% 9.8 mph NW15.8 kmh NW 11.4 mph18.3 kmh 30.31 in1026.4 mb 0.00 in0.0 mm 0.00 in0.0 mm 0.00 in0.0 mm
10:50 PM 41.2°F5.1°C 28.0°F-2.2°C 59% 13.7 mph 22.0 kmh 15.2 mph24.5 kmh 30.31 in1026.4 mb 0.00 in0.0 mm 0.00 in0.0 mm 0.00 in0.0 mm
10:52 PM 41.5°F5.3°C 27.0°F-2.8°C 56% 12.1 mph 19.5 kmh 13.0 mph20.9 kmh 30.32 in1026.8 mb 0.00 in0.0 mm 0.00 in0.0 mm 0.00 in0.0 mm
10:54 PM 42.1°F5.6°C 27.1°F-2.7°C 55% 13.0 mph 20.9 kmh 13.7 mph22.0 kmh 30.31 in1026.4 mb 0.00 in0.0 mm 0.00 in0.0 mm 0.00 in0.0 mm
10:56 PM 42.1°F5.6°C 26.2°F-3.2°C 53% 13.0 mph 20.9 kmh 13.7 mph22.0 kmh 30.31 in1026.4 mb 0.00 in0.0 mm 0.00 in0.0 mm 0.00 in0.0 mm
10:58 PM 42.3°F5.7°C 25.9°F-3.4°C 52% 13.7 mph 22.0 kmh 15.2 mph24.5 kmh 30.31 in1026.4 mb 0.00 in0.0 mm 0.00 in0.0 mm 0.00 in0.0 mm
11:00 PM 42.4°F5.8°C 26.1°F-3.3°C 52% 13.0 mph 20.9 kmh 14.5 mph23.3 kmh 30.31 in1026.4 mb 0.00 in0.0 mm 0.00 in0.0 mm 0.00 in0.0 mm
11:02 PM 42.4°F5.8°C 25.6°F-3.6°C 51% 12.1 mph 19.5 kmh 13.7 mph22.0 kmh 30.31 in1026.4 mb 0.00 in0.0 mm 0.00 in0.0 mm 0.00 in0.0 mm
11:04 PM 42.6°F5.9°C 25.8°F-3.4°C 51% 13.0 mph 20.9 kmh 14.5 mph23.3 kmh 30.31 in1026.4 mb 0.00 in0.0 mm 0.00 in0.0 mm 0.00 in0.0 mm
11:06 PM 42.6°F5.9°C 26.2°F-3.2°C 52% 11.4 mph 18.3 kmh 13.0 mph20.9 kmh 30.31 in1026.4 mb 0.00 in0.0 mm 0.00 in0.0 mm 0.00 in0.0 mm
11:08 PM 42.6°F5.9°C 26.2°F-3.2°C 52% 11.4 mph 18.3 kmh 13.0 mph20.9 kmh 30.31 in1026.4 mb 0.00 in0.0 mm 0.00 in0.0 mm 0.00 in0.0 mm
11:10 PM 42.6°F5.9°C 26.2°F-3.2°C 52% 9.8 mph 15.8 kmh 11.4 mph18.3 kmh 30.31 in1026.4 mb 0.00 in0.0 mm 0.00 in0.0 mm 0.00 in0.0 mm
11:12 PM 42.4°F5.8°C 26.5°F-3.1°C 53% 10.7 mph 17.2 kmh 12.1 mph19.5 kmh 30.31 in1026.4 mb 0.00 in0.0 mm 0.00 in0.0 mm 0.00 in0.0 mm
11:14 PM 42.4°F5.8°C 26.1°F-3.3°C 52% 9.8 mph 15.8 kmh 10.7 mph17.2 kmh 30.31 in1026.4 mb 0.00 in0.0 mm 0.00 in0.0 mm 0.00 in0.0 mm
11:16 PM 42.4°F5.8°C 26.1°F-3.3°C 52% 11.4 mph 18.3 kmh 12.1 mph19.5 kmh 30.31 in1026.4 mb 0.00 in0.0 mm 0.00 in0.0 mm 0.00 in0.0 mm
11:18 PM 42.4°F5.8°C 26.5°F-3.1°C 53% 12.1 mph 19.5 kmh 13.0 mph20.9 kmh 30.31 in1026.4 mb 0.00 in0.0 mm 0.00 in0.0 mm 0.00 in0.0 mm
11:20 PM 42.4°F5.8°C 26.5°F-3.1°C 53% 10.7 mph 17.2 kmh 11.4 mph18.3 kmh 30.31 in1026.4 mb 0.00 in0.0 mm 0.00 in0.0 mm 0.00 in0.0 mm
11:22 PM 42.3°F5.7°C 26.8°F-2.9°C 54% 12.1 mph 19.5 kmh 13.0 mph20.9 kmh 30.31 in1026.4 mb 0.00 in0.0 mm 0.00 in0.0 mm 0.00 in0.0 mm
11:24 PM 42.1°F5.6°C 26.7°F-2.9°C 54% 13.7 mph 22.0 kmh 15.2 mph24.5 kmh 30.31 in1026.4 mb 0.00 in0.0 mm 0.00 in0.0 mm 0.00 in0.0 mm
11:26 PM 42.1°F5.6°C 27.1°F-2.7°C 55% 14.5 mph 23.3 kmh 15.9 mph25.6 kmh 30.31 in1026.4 mb 0.00 in0.0 mm 0.00 in0.0 mm 0.00 in0.0 mm
11:28 PM 42.1°F5.6°C 27.5°F-2.5°C 56% 14.5 mph 23.3 kmh 15.9 mph25.6 kmh 30.31 in1026.4 mb 0.00 in0.0 mm 0.00 in0.0 mm 0.00 in0.0 mm
11:30 PM 42.1°F5.6°C 27.5°F-2.5°C 56% 15.9 mph 25.6 kmh 16.8 mph27.0 kmh 30.31 in1026.4 mb 0.00 in0.0 mm 0.00 in0.0 mm 0.00 in0.0 mm
11:32 PM 42.1°F5.6°C 27.1°F-2.7°C 55% 15.9 mph 25.6 kmh 16.8 mph27.0 kmh 30.31 in1026.4 mb 0.00 in0.0 mm 0.00 in0.0 mm 0.00 in0.0 mm
11:34 PM 42.3°F5.7°C 27.3°F-2.6°C 55% 15.9 mph 25.6 kmh 16.8 mph27.0 kmh 30.31 in1026.4 mb 0.00 in0.0 mm 0.00 in0.0 mm 0.00 in0.0 mm
11:36 PM 42.3°F5.7°C 27.7°F-2.4°C 56% 15.2 mph 24.5 kmh 16.8 mph27.0 kmh 30.31 in1026.4 mb 0.00 in0.0 mm 0.00 in0.0 mm 0.00 in0.0 mm
11:38 PM 42.3°F5.7°C 27.3°F-2.6°C 55% 17.5 mph 28.2 kmh 18.3 mph29.5 kmh 30.32 in1026.8 mb 0.00 in0.0 mm 0.00 in0.0 mm 0.00 in0.0 mm
11:40 PM 42.3°F5.7°C 27.7°F-2.4°C 56% 18.3 mph 29.5 kmh 19.7 mph31.7 kmh 30.32 in1026.8 mb 0.00 in0.0 mm 0.00 in0.0 mm 0.00 in0.0 mm
11:42 PM 42.4°F5.8°C 27.0°F-2.8°C 54% 17.5 mph 28.2 kmh 18.3 mph29.5 kmh 30.32 in1026.8 mb 0.00 in0.0 mm 0.00 in0.0 mm 0.00 in0.0 mm
11:44 PM 42.4°F5.8°C 27.0°F-2.8°C 54% 16.8 mph 27.0 kmh 18.3 mph29.5 kmh 30.32 in1026.8 mb 0.00 in0.0 mm 0.00 in0.0 mm 0.00 in0.0 mm
11:46 PM 42.4°F5.8°C 27.4°F-2.6°C 55% 17.5 mph 28.2 kmh 19.0 mph30.6 kmh 30.31 in1026.4 mb 0.00 in0.0 mm 0.00 in0.0 mm 0.00 in0.0 mm
11:48 PM 42.4°F5.8°C 27.4°F-2.6°C 55% 17.5 mph 28.2 kmh 19.0 mph30.6 kmh 30.32 in1026.8 mb 0.00 in0.0 mm 0.00 in0.0 mm 0.00 in0.0 mm
11:50 PM 42.3°F5.7°C 26.8°F-2.9°C 54% 15.9 mph 25.6 kmh 18.3 mph29.5 kmh 30.32 in1026.8 mb 0.00 in0.0 mm 0.00 in0.0 mm 0.00 in0.0 mm
11:52 PM 42.3°F5.7°C 26.8°F-2.9°C 54% 18.3 mph NNE29.5 kmh NNE 19.7 mph31.7 kmh 30.32 in1026.8 mb 0.00 in0.0 mm 0.00 in0.0 mm 0.00 in0.0 mm
11:54 PM 42.3°F5.7°C 27.3°F-2.6°C 55% 14.5 mph 23.3 kmh 15.2 mph24.5 kmh 30.32 in1026.8 mb 0.00 in0.0 mm 0.00 in0.0 mm 0.00 in0.0 mm
11:56 PM 42.1°F5.6°C 27.1°F-2.7°C 55% 14.5 mph 23.3 kmh 15.9 mph25.6 kmh 30.32 in1026.8 mb 0.00 in0.0 mm 0.00 in0.0 mm 0.00 in0.0 mm
11:58 PM 42.1°F5.6°C 27.1°F-2.7°C 55% 15.9 mph NNE25.6 kmh NNE 18.3 mph29.5 kmh 30.31 in1026.4 mb 0.00 in0.0 mm 0.00 in0.0 mm 0.00 in0.0 mm